Depesze METAR lotnisk w Polsce

EPWA EPMO EPKK EPLL EPWR EPKT EPGD EPPO EPRZ EPSC EPLB EPBY EPZG EPSY EPCE EPDA EPDE EPIR EPKS EPLK EPLY EPMB EPMI EPMM EPNA EPOK EPPR EPPW EPRA EPSN EPTM

METAR – format kodowanego raportu o pogodzie używany w meteorologii lotniczej i prognozie pogody. METAR jest akronimem od ang. Meteorological Aerodrome Report. Typowy METAR zawiera informację o temperaturze, ciśnieniu, temperaturze punktu rosy, sile i kierunku wiatru, opadzie, pokrywie chmur, wysokości podstawy chmur, widzialności, lecz może zawierać też inne informacje (np. stan dróg startowych).

Postaw mi kawę na buycoffee.to

Warszawa-Okęcie (EPWA)

METAR = EPWA 010200Z 26003KT 6000 -RA NSC 09/09 Q1014 NOSIG

STACJA........... EPWA - Warszawa-Okęcie (WAW)
POMIAR........... Sat Oct 1, 04:00 CEST
WIATR............ zachodni (W) z prędkością 6 km/h
WIDZIALNOŚĆ...... 6000 metrów
WARUNKI.......... słaby: deszcz 
CHMURY........... brak istotnych chmur
TEMPERATURA...... 9°C
T.PUNKTU ROSY.... 9°C
WILGOTNOŚĆ....... 100%
T.ODCZUWALNA..... 8°C
CIŚNIENIE........ 1014 hPa
CIŚN.BEZWZGL..... 1001 hPa
PROGNOZA......... bez nagłych zmian w ciągu 2h

Sprawdź też: Prognoza pogody Warszawa


Warszawa-Modlin (EPMO)

METAR = EPMO 010200Z 21003KT 9000 NSC 09/08 Q1014 =

STACJA........... EPMO - Warszawa-Modlin (WMI)
POMIAR........... Sat Oct 1, 04:00 CEST
WIATR............ południowo południowo-zachodni  (SSW) z prędkością 6 km/h
WIDZIALNOŚĆ...... 9000 metrów
CHMURY........... brak istotnych chmur
TEMPERATURA...... 9°C
T.PUNKTU ROSY.... 8°C
WILGOTNOŚĆ....... 94%
T.ODCZUWALNA..... 8°C
CIŚNIENIE........ 1014 hPa
CIŚN.BEZWZGL..... 1001 hPa

Sprawdź też: Prognoza pogody Nowy Dwór Mazowiecki


Kraków-Balice (EPKK)

METAR = EPKK 010200Z 19002KT 3000 BR FEW003 SCT006 BKN037 11/10 Q1014

STACJA........... EPKK - Kraków-Balice (KRK)
POMIAR........... Sat Oct 1, 04:00 CEST
WIATR............ południowy (S) z prędkością 4 km/h
WIDZIALNOŚĆ...... 3000 metrów
WARUNKI.......... zamglenie 
CHMURY........... zachmurzenie średnie (5/8-7/8)
TEMPERATURA...... 11°C
T.PUNKTU ROSY.... 10°C
WILGOTNOŚĆ....... 94%
CIŚNIENIE........ 1014 hPa
CIŚN.BEZWZGL..... 985 hPa

Sprawdź też: Prognoza pogody Kraków


Łódź-Lublinek (EPLL)

METAR = EPLL 010200Z 11001KT 3800 BR SCT014 08/08 Q1014

STACJA........... EPLL - Łódź-Lublinek (LCJ)
POMIAR........... Sat Oct 1, 04:00 CEST
WIATR............ wschodni południowo-wschodni (ESE) z prędkością 2 km/h
WIDZIALNOŚĆ...... 3800 metrów
WARUNKI.......... zamglenie 
CHMURY........... zachmurzenie małe (3/8-4/8)
TEMPERATURA...... 8°C
T.PUNKTU ROSY.... 8°C
WILGOTNOŚĆ....... 100%
CIŚNIENIE........ 1014 hPa
CIŚN.BEZWZGL..... 991 hPa

Sprawdź też: Prognoza pogody Łódź


Wrocław-Strachowice (EPWR)

METAR = EPWR 010200Z VRB02KT 0600 R29/0700D FG NSC 05/05 Q1014

STACJA........... EPWR - Wrocław-Strachowice (WRO)
POMIAR........... Sat Oct 1, 04:00 CEST
WIATR............ zmienny z prędkością 4 km/h
WIDZIALNOŚĆ...... 600 metrów
WARUNKI.......... mgła 
CHMURY........... brak istotnych chmur
TEMPERATURA...... 5°C
T.PUNKTU ROSY.... 5°C
WILGOTNOŚĆ....... 100%
CIŚNIENIE........ 1014 hPa
CIŚN.BEZWZGL..... 999 hPa

Sprawdź też: Prognoza pogody Wrocław


Katowice-Pyrzowice (EPKT)

METAR = EPKT 010200Z 23005KT 4000 BR OVC003 10/09 Q1014

STACJA........... EPKT - Katowice-Pyrzowice (KTW)
POMIAR........... Sat Oct 1, 04:00 CEST
WIATR............ południowo-zachodni (SW) z prędkością 9 km/h
WIDZIALNOŚĆ...... 4000 metrów
WARUNKI.......... zamglenie 
CHMURY........... zachmurzenie całkowite (8/8)
TEMPERATURA...... 10°C
T.PUNKTU ROSY.... 9°C
WILGOTNOŚĆ....... 94%
T.ODCZUWALNA..... 9°C
CIŚNIENIE........ 1014 hPa
CIŚN.BEZWZGL..... 978 hPa

Sprawdź też: Prognoza pogody Katowice


Gdańsk (EPGD)

METAR = EPGD 010200Z 27002KT 9000 NSC 06/05 Q1012

STACJA........... EPGD - Gdańsk im. Lecha Wałęsy (GDN)
POMIAR........... Sat Oct 1, 04:00 CEST
WIATR............ zachodni (W) z prędkością 4 km/h
WIDZIALNOŚĆ...... 9000 metrów
CHMURY........... brak istotnych chmur
TEMPERATURA...... 6°C
T.PUNKTU ROSY.... 5°C
WILGOTNOŚĆ....... 93%
CIŚNIENIE........ 1012 hPa
CIŚN.BEZWZGL..... 994 hPa

Sprawdź też: Prognoza pogody Gdańsk


Poznań-Ławica (EPPO)

METAR = EPPO 010200Z 15005KT 7000 NSC 07/06 Q1012

STACJA........... EPPO - Poznań-Ławica (POZ)
POMIAR........... Sat Oct 1, 04:00 CEST
WIATR............ południowo południowo-wschodni (SSE) z prędkością 9 km/h
WIDZIALNOŚĆ...... 7000 metrów
CHMURY........... brak istotnych chmur
TEMPERATURA...... 7°C
T.PUNKTU ROSY.... 6°C
WILGOTNOŚĆ....... 93%
T.ODCZUWALNA..... 6°C
CIŚNIENIE........ 1012 hPa
CIŚN.BEZWZGL..... 1000 hPa

Sprawdź też: Prognoza pogody Poznań


Rzeszów-Jasionka (EPRZ)

METAR = EPRZ 010200Z 23002KT 9999 OVC013 11/11 Q1014

STACJA........... EPRZ - Rzeszów-Jasionka (RZE)
POMIAR........... Sat Oct 1, 04:00 CEST
WIATR............ południowo-zachodni (SW) z prędkością 4 km/h
WIDZIALNOŚĆ...... powyżej 10 kilometrów
CHMURY........... zachmurzenie całkowite (8/8)
TEMPERATURA...... 11°C
T.PUNKTU ROSY.... 11°C
WILGOTNOŚĆ....... 100%
CIŚNIENIE........ 1014 hPa
CIŚN.BEZWZGL..... 989 hPa

Sprawdź też: Prognoza pogody Rzeszów


Szczecin-Goleniów (EPSC)

METAR = EPSC 010200Z 14009KT CAVOK 06/05 Q1010

STACJA........... EPSC - Szczecin-Goleniów (SZZ)
POMIAR........... Sat Oct 1, 04:00 CEST
WIATR............ południowo wschodni (SE) z prędkością 17 km/h
WIDZIALNOŚĆ...... powyżej 10 kilometrów
CHMURY........... bezchmurne niebo
TEMPERATURA...... 6°C
T.PUNKTU ROSY.... 5°C
WILGOTNOŚĆ....... 93%
T.ODCZUWALNA..... 3°C
CIŚNIENIE........ 1010 hPa
CIŚN.BEZWZGL..... 1004 hPa

Sprawdź też: Prognoza pogody Szczecin


Lublin-Świdnik (EPLB)

METAR = EPLB 010200Z 26006KT 7000 BKN003 OVC009 10/10 Q1014 =

STACJA........... EPLB - Lublin-Świdnik (LUZ)
POMIAR........... Sat Oct 1, 04:00 CEST
WIATR............ zachodni (W) z prędkością 11 km/h
WIDZIALNOŚĆ...... 7000 metrów
CHMURY........... zachmurzenie całkowite (8/8)
TEMPERATURA...... 10°C
T.PUNKTU ROSY.... 10°C
WILGOTNOŚĆ....... 100%
T.ODCZUWALNA..... 8°C
CIŚNIENIE........ 1014 hPa
CIŚN.BEZWZGL..... 990 hPa

Sprawdź też: Prognoza pogody Lublin


Bydgoszcz-Szwederowo (EPBY)

METAR = EPBY 010200Z VRB01KT 4700 BR NSC 07/06 Q1013=

STACJA........... EPBY - Bydgoszcz-Szwederowo (BZG)
POMIAR........... Sat Oct 1, 04:00 CEST
WIATR............ zmienny z prędkością 2 km/h
WIDZIALNOŚĆ...... 4700 metrów
WARUNKI.......... zamglenie 
CHMURY........... brak istotnych chmur
TEMPERATURA...... 7°C
T.PUNKTU ROSY.... 6°C
WILGOTNOŚĆ....... 93%
CIŚNIENIE........ 1013 hPa
CIŚN.BEZWZGL..... 1004 hPa

Sprawdź też: Prognoza pogody Bydgoszcz


Zielona Góra-Babimost (EPZG)

METAR = EPZG 010200Z NIL=

STACJA........... EPZG - Zielona Góra-Babimost (IEG)
POMIAR........... Sat Oct 1, 04:00 CEST
DEPESZA.......... brak aktualnej prognozy w treści depeszy

Sprawdź też: Prognoza pogody Zielona Góra


Szymany Olsztyn-Mazury (EPSY)

METAR = EPSY 010200Z 00000KT 4400 BR NSC 06/06 Q1013=

STACJA........... EPSY - Olsztyn-Mazury (SZY)
POMIAR........... Sat Oct 1, 04:00 CEST
WIATR............ bezwietrznie
WIDZIALNOŚĆ...... 4400 metrów
WARUNKI.......... zamglenie 
CHMURY........... brak istotnych chmur
TEMPERATURA...... 6°C
T.PUNKTU ROSY.... 6°C
WILGOTNOŚĆ....... 100%
CIŚNIENIE........ 1013 hPa
CIŚN.BEZWZGL..... 996 hPa

Sprawdź też: Prognoza pogody Olsztyn


Cewice (EPCE)

METAR = 

STACJA........... EPCE - Cewice
POMIAR........... Thu Jan 1, 03:00 CET
BŁĄD............. Dane niedostępne.

Darłowo (EPDA)

METAR = 

STACJA........... EPDA - Darłowo
POMIAR........... Thu Jan 1, 03:00 CET
BŁĄD............. Dane niedostępne.

Dęblin (EPDE)

METAR = 

STACJA........... EPDE - Dęblin
POMIAR........... Thu Jan 1, 03:00 CET
BŁĄD............. Dane niedostępne.

Inowrocław-Latkowo (EPIR)

METAR = 

STACJA........... EPIR - Inowrocław-Latkowo
POMIAR........... Thu Jan 1, 03:00 CET
BŁĄD............. Dane niedostępne.

Poznań-Krzesiny (EPKS)

METAR = 

STACJA........... EPKS - Poznań-Krzesiny
POMIAR........... Thu Jan 1, 03:00 CET
BŁĄD............. Dane niedostępne.

Łask (EPLK)

METAR = 

STACJA........... EPLK - Łask
POMIAR........... Thu Jan 1, 03:00 CET
BŁĄD............. Dane niedostępne.

Łęczyca (EPLY)

METAR = 

STACJA........... EPLY - Łęczyca
POMIAR........... Thu Jan 1, 03:00 CET
BŁĄD............. Dane niedostępne.

Malbork (EPMB)

METAR = 

STACJA........... EPMB - Malbork
POMIAR........... Thu Jan 1, 03:00 CET
BŁĄD............. Dane niedostępne.

Mirosławiec (EPMI)

METAR = 

STACJA........... EPMI - Mirosławiec
POMIAR........... Thu Jan 1, 03:00 CET
BŁĄD............. Dane niedostępne.

Mińsk Mazowiecki (EPMM)

METAR = 

STACJA........... EPMM - Mińsk Mazowiecki
POMIAR........... Thu Jan 1, 03:00 CET
BŁĄD............. Dane niedostępne.

Nadarzyce (EPNA)

METAR = 

STACJA........... EPNA - Nadarzyce
POMIAR........... Thu Jan 1, 03:00 CET
BŁĄD............. Dane niedostępne.

Gdynia-Kosakowo (EPOK)

METAR = 

STACJA........... EPOK - Gdynia-Kosakowo
POMIAR........... Thu Jan 1, 03:00 CET
BŁĄD............. Dane niedostępne.

Pruszcz Gdański (EPPR)

METAR = 

STACJA........... EPPR - Pruszcz Gdański
POMIAR........... Thu Jan 1, 03:00 CET
BŁĄD............. Dane niedostępne.

Powidz (EPPW)

METAR = 

STACJA........... EPPW - Powidz
POMIAR........... Thu Jan 1, 03:00 CET
BŁĄD............. Dane niedostępne.

Radom-Sadków (EPRA)

METAR = 

STACJA........... EPRA - Radom-Sadków
POMIAR........... Thu Jan 1, 03:00 CET
BŁĄD............. Dane niedostępne.

Świdwin (EPSN)

METAR = 

STACJA........... EPSN - Świdwin
POMIAR........... Thu Jan 1, 03:00 CET
BŁĄD............. Dane niedostępne.

Tomaszów Mazowiecki (EPTM)

METAR = 

STACJA........... EPTM - Tomaszów Mazowiecki
POMIAR........... Thu Jan 1, 03:00 CET
BŁĄD............. Dane niedostępne.